Terminal Aerodrome Forecast
Issued by NWS

Home | Current Version | Previous Version | Text Only | Print | Product List | Glossary Off
Versions: 1 2 3 4 5 6 7 8 9 10 11 12 13 14 15 16 17 18 19 20 21 22 23 24 25 26 27 28 29

000
FTUS43 KLOT 142322
TAFDPA
TAF
KDPA 142322Z 1500/1524 14012KT 4SM -SHRA BR VCTS SCT004 BKN040CB
      TEMPO 1500/1502 2SM TSRA BR BKN004CB
     FM150500 22015G22KT 4SM -SHRA BR VCTS FEW007 SCT012 BKN030CB
      TEMPO 1505/1509 2SM TSRA OVC012CB
     FM151100 29020G35KT P6SM VCSH OVC015
     FM151600 32017G26KT P6SM BKN025
     FM152000 32014G22KT P6SM SCT030=

USA.gov is the U.S. government's official web portal to all federal, state and local government web resources and services.